Key West, FL NWLON current weather conditions

sailwx.info

Wind from 004 at 5 knots gusting 7

Last reported at 2019-Nov-19 14:36 UTC.
Time now 2019-Nov-19 15:55 UTC

Location: N 24°33' W 081°48'.
View on Google Maps.

See reports from other nearby stations

  
Tides and Currents Weather Stations Pressure Air Temp Water Temp Dewpoint Dewpoint Depression Visibility Wind Speed Wind Dir Waves Ship Positions
date/time (UTC)wind fromknots sea level pressurealtimeterstation pressurevisibilityair tempwater tempwave heightnotes
2019-Nov-19 14:36 004 5 gusting 7
2019-Nov-19 14:30 009 6 gusting 8
2019-Nov-19 14:24 005 6 gusting 7
2019-Nov-19 14:18 013 5 gusting 7
2019-Nov-19 14:12 006 5 gusting 6
2019-Nov-19 14:06 006 4 gusting 6
2019-Nov-19 14:00 334 6 gusting 6
2019-Nov-19 13:54 346 2 gusting 6
2019-Nov-19 13:48 336 5 gusting 6
2019-Nov-19 13:42 325 5 gusting 6
2019-Nov-19 13:36 320 4 gusting 6
2019-Nov-19 13:30 323 6 gusting 11
2019-Nov-19 13:24 334 9 gusting 10
2019-Nov-19 13:18 323 9 gusting 12
2019-Nov-19 13:12 340 7 gusting 11
2019-Nov-19 13:06 330 11 gusting 13
2019-Nov-19 13:00 325 12 gusting 13
2019-Nov-19 12:54 337 9 gusting 12
2019-Nov-19 12:48 331 7 gusting 9
2019-Nov-19 12:42 334 6 gusting 7
2019-Nov-19 12:36 329 7 gusting 8
2019-Nov-19 12:30 338 5 gusting 6
2019-Nov-19 12:24 342 6 gusting 6
2019-Nov-19 12:18 351 5 gusting 6
2019-Nov-19 12:12 002 4 gusting 9
2019-Nov-19 12:06 002 7 gusting 9
2019-Nov-19 12:00 003 7 gusting 11
2019-Nov-19 11:54 349 9 gusting 13
2019-Nov-19 11:48 348 10 gusting 13
2019-Nov-19 11:42 343 11 gusting 14
2019-Nov-19 11:36 337 12 gusting 15
2019-Nov-19 11:30 319 9 gusting 11
2019-Nov-19 11:24 307 9 gusting 11
2019-Nov-19 11:18 301 8 gusting 11
2019-Nov-19 11:12 312 9 gusting 10
2019-Nov-19 11:06 309 8 gusting 11
2019-Nov-19 11:00 312 9 gusting 11
2019-Nov-19 10:54 310 9 gusting 11
2019-Nov-19 10:48 315 11 gusting 13
2019-Nov-19 10:42 328 11 gusting 13
2019-Nov-19 10:36 333 10 gusting 13
2019-Nov-19 10:30 330 10 gusting 12
2019-Nov-19 10:24 322 11 gusting 13
2019-Nov-19 10:18 319 12 gusting 14
2019-Nov-19 10:12 317 12 gusting 13
2019-Nov-19 10:06 304 11 gusting 13
2019-Nov-19 10:00 314 10 gusting 12
2019-Nov-19 09:54 307 10 gusting 13
2019-Nov-19 09:48 300 8 gusting 11
2019-Nov-19 09:42 306 9 gusting 10
2019-Nov-19 09:36 296 8 gusting 11
2019-Nov-19 09:30 290 8 gusting 10
2019-Nov-19 09:24 292 9 gusting 12
2019-Nov-19 09:18 294 10 gusting 13
2019-Nov-19 09:12 306 12 gusting 14
2019-Nov-19 09:06 306 10 gusting 12
2019-Nov-19 09:00 306 11 gusting 13
2019-Nov-19 08:54 307 10 gusting 13
2019-Nov-19 08:48 303 12 gusting 13
2019-Nov-19 08:42 297 11 gusting 13
2019-Nov-19 08:36 295 11 gusting 13
2019-Nov-19 08:30 295 11 gusting 13
2019-Nov-19 08:24 293 12 gusting 13
2019-Nov-19 08:18 290 11 gusting 13
2019-Nov-19 08:12 296 12 gusting 13
2019-Nov-19 08:06 299 11 gusting 13
2019-Nov-19 08:00 302 11 gusting 13
2019-Nov-19 07:54 305 11 gusting 13
2019-Nov-19 07:48 306 12 gusting 13
2019-Nov-19 07:42 305 13 gusting 15
2019-Nov-19 07:36 301 11 gusting 13
2019-Nov-19 07:30 292 9 gusting 12
2019-Nov-19 07:24 289 9 gusting 10
2019-Nov-19 07:18 282 7 gusting 9
2019-Nov-19 07:12 286 8 gusting 9
2019-Nov-19 07:06 273 8 gusting 10
2019-Nov-19 07:00 287 7 gusting 9
2019-Nov-19 06:54 286 8 gusting 9
2019-Nov-19 06:48 281 8 gusting 10
2019-Nov-19 06:42 278 7 gusting 10
2019-Nov-19 06:36 285 8 gusting 11
2019-Nov-19 06:30 291 9 gusting 11
2019-Nov-19 06:24 282 9 gusting 12
2019-Nov-19 06:18 280 10 gusting 13
2019-Nov-19 06:12 278 10 gusting 12
2019-Nov-19 06:06 272 10 gusting 13
2019-Nov-19 06:00 279 10 gusting 12
2019-Nov-19 05:54 278 10 gusting 13
2019-Nov-19 05:48 282 10 gusting 13
2019-Nov-19 05:42 284 10 gusting 13
2019-Nov-19 05:36 285 11 gusting 13
2019-Nov-19 05:30 288 12 gusting 13
2019-Nov-19 05:24 287 11 gusting 13
2019-Nov-19 05:18 292 12 gusting 13
2019-Nov-19 05:12 292 13 gusting 15
2019-Nov-19 05:06 293 13 gusting 15
2019-Nov-19 05:00 293 12 gusting 14
2019-Nov-19 04:54 292 10 gusting 13
2019-Nov-19 04:48 286 11 gusting 13
2019-Nov-19 04:42 284 12 gusting 14
2019-Nov-19 04:36 280 13 gusting 15
2019-Nov-19 04:30 282 13 gusting 14
2019-Nov-19 04:24 283 12 gusting 14
2019-Nov-19 04:18 282 11 gusting 13
2019-Nov-19 04:12 282 12 gusting 13
2019-Nov-19 04:06 281 12 gusting 14
2019-Nov-19 04:00 277 13 gusting 15
2019-Nov-19 03:54 282 14 gusting 15
2019-Nov-19 03:48 279 13 gusting 14
2019-Nov-19 03:42 278 13 gusting 14
2019-Nov-19 03:36 273 11 gusting 13
2019-Nov-19 03:30 274 11 gusting 13
2019-Nov-19 03:24 265 8 gusting 11
2019-Nov-19 03:18 272 10 gusting 12
2019-Nov-19 03:12 269 9 gusting 12
2019-Nov-19 03:06 263 6 gusting 9
2019-Nov-19 03:00 278 8 gusting 10
2019-Nov-19 02:54 281 10 gusting 11
2019-Nov-19 02:48 285 7 gusting 10
2019-Nov-19 02:42 252 4 gusting 6
2019-Nov-19 02:36 249 0 gusting 1
2019-Nov-19 02:30 212 1 gusting 1
2019-Nov-19 02:24 184
2019-Nov-19 02:18 177
2019-Nov-19 02:12 340 0 gusting 2
2019-Nov-19 02:06 320 1 gusting 2
2019-Nov-19 02:00 305 2 gusting 3
2019-Nov-19 01:54 294 2 gusting 3
2019-Nov-19 01:48 295 1 gusting 3
2019-Nov-19 01:42 272 2 gusting 3
2019-Nov-19 01:36 309 1 gusting 3
2019-Nov-19 01:30 298 2 gusting 3
2019-Nov-19 01:24 302 2 gusting 3
2019-Nov-19 01:18 294 2 gusting 3
2019-Nov-19 01:12 310 1 gusting 3
2019-Nov-19 01:06 320 0 gusting 2
2019-Nov-19 01:00 316 0 gusting 1
2019-Nov-19 00:54 318
2019-Nov-19 00:48 020 0 gusting 1
2019-Nov-19 00:42 079 1 gusting 1
2019-Nov-19 00:36 070 1 gusting 1
2019-Nov-19 00:30 060 1 gusting 2
2019-Nov-19 00:24 066 1 gusting 2
2019-Nov-19 00:18 062 1 gusting 2
2019-Nov-19 00:12 077 2 gusting 3
2019-Nov-19 00:06 072 3 gusting 3
2019-Nov-19 00:00 077 1 gusting 3
2019-Nov-18 23:54 071 2 gusting 3
2019-Nov-18 23:36 099 1 gusting 1
2019-Nov-18 23:30 107
2019-Nov-18 23:24 091 1 gusting 2
2019-Nov-18 23:18 094 1 gusting 2
2019-Nov-18 23:12 083 1 gusting 2
2019-Nov-18 23:06 089 1 gusting 2
2019-Nov-18 23:00 090 1 gusting 3
2019-Nov-18 22:54 080 0 gusting 1
2019-Nov-18 22:48 063
2019-Nov-18 22:42 077
2019-Nov-18 22:36 058 1 gusting 1
2019-Nov-18 22:30 022 0 gusting 1
2019-Nov-18 22:24 032
2019-Nov-18 22:18 335
2019-Nov-18 22:12 231
2019-Nov-18 22:06 288 1 gusting 2
2019-Nov-18 22:00 234
2019-Nov-18 21:54 235 1 gusting 2
2019-Nov-18 21:48 225 1 gusting 3
2019-Nov-18 21:42 239 1 gusting 3
2019-Nov-18 21:36 290 1 gusting 2
2019-Nov-18 21:30 280 0 gusting 1
2019-Nov-18 21:24 302 1 gusting 2
2019-Nov-18 21:18 317 2 gusting 2
2019-Nov-18 21:12 294 2 gusting 3
2019-Nov-18 21:06 292 1 gusting 2
2019-Nov-18 21:00 225 1 gusting 4
2019-Nov-18 20:54 279 3 gusting 4
2019-Nov-18 20:48 304 3 gusting 4
2019-Nov-18 20:42 281 3 gusting 4
2019-Nov-18 20:36 286 3 gusting 4
2019-Nov-18 20:30 313 3 gusting 4
2019-Nov-18 20:24 290 2 gusting 4
2019-Nov-18 20:18 318 3 gusting 4
2019-Nov-18 20:12 301 2 gusting 5
2019-Nov-18 20:06 329 2 gusting 3
2019-Nov-18 20:00 315 2 gusting 4
2019-Nov-18 19:54 335 1 gusting 3
2019-Nov-18 19:48 311 1 gusting 2
2019-Nov-18 19:42 321 2 gusting 3
2019-Nov-18 19:36 335 2 gusting 4
2019-Nov-18 19:30 324 2 gusting 3
2019-Nov-18 19:24 328 2 gusting 3
2019-Nov-18 19:18 318 3 gusting 4
2019-Nov-18 19:12 335 2 gusting 3
2019-Nov-18 19:06 311 1 gusting 3
2019-Nov-18 19:00 326 0 gusting 2
2019-Nov-18 18:54 036 0 gusting 2
2019-Nov-18 18:48 347 1 gusting 2
2019-Nov-18 18:42 330 2 gusting 3
2019-Nov-18 18:36 348 1 gusting 3
2019-Nov-18 18:30 353 1 gusting 3
2019-Nov-18 18:24 003 2 gusting 3
2019-Nov-18 18:18 332 2 gusting 3
2019-Nov-18 18:12 285 0 gusting 2
2019-Nov-18 18:06 314 1 gusting 3
2019-Nov-18 18:00 003 3 gusting 5
2019-Nov-18 17:54 344 3 gusting 4
2019-Nov-18 17:48 350 2 gusting 3
2019-Nov-18 17:42 339 0 gusting 2
2019-Nov-18 17:36 275 1 gusting 3
2019-Nov-18 17:30 304 3 gusting 5
2019-Nov-18 17:24 328 5 gusting 7
2019-Nov-18 17:18 349 5 gusting 6
2019-Nov-18 17:12 356 4 gusting 6
2019-Nov-18 17:06 354 6 gusting 6
2019-Nov-18 17:00 001 1 gusting 5
2019-Nov-18 16:54 037 2 gusting 6
2019-Nov-18 16:48 037 3 gusting 6
2019-Nov-18 16:42 277 1 gusting 5
2019-Nov-18 16:36 143 2 gusting 6
2019-Nov-18 16:30 136 2 gusting 6
2019-Nov-18 16:24 122 5 gusting 7
2019-Nov-18 16:18 122 5 gusting 7
2019-Nov-18 16:12 133 6 gusting 8
2019-Nov-18 16:06 123 6 gusting 9
2019-Nov-18 16:00 132 6 gusting 9
2019-Nov-18 15:54 125 4 gusting 9
2019-Nov-18 15:48 110 7 gusting 10
2019-Nov-18 15:42 106 6 gusting 10
2019-Nov-18 15:36 106 4 gusting 9
2019-Nov-18 15:30 104 7 gusting 11
2019-Nov-18 15:24 107 5 gusting 9
2019-Nov-18 15:18 077 5 gusting 8
2019-Nov-18 15:12 099 5 gusting 7
2019-Nov-18 15:06 109 5 gusting 7
2019-Nov-18 15:00 096 4 gusting 6
2019-Nov-18 14:54 095 4 gusting 7
2019-Nov-18 14:48 092 5 gusting 9
2019-Nov-18 14:42 090 5 gusting 7
2019-Nov-18 14:36 096 5 gusting 7
2019-Nov-18 14:30 106 5 gusting 7
2019-Nov-18 14:24 111 4 gusting 6
2019-Nov-18 14:18 090 3 gusting 6
2019-Nov-18 14:12 079 4 gusting 6
2019-Nov-18 14:06 089 1 gusting 5
2019-Nov-18 14:00 091 1 gusting 6
2019-Nov-18 13:54 096 3 gusting 6
2019-Nov-18 13:48 092 5 gusting 7
2019-Nov-18 13:42 099 1 gusting 3
2019-Nov-18 13:36 099 3 gusting 6
2019-Nov-18 13:30 092 3 gusting 5
2019-Nov-18 13:24 099 4 gusting 6
2019-Nov-18 13:18 095 4 gusting 7
2019-Nov-18 13:12 079 3 gusting 6
2019-Nov-18 13:06 088 3 gusting 6
2019-Nov-18 13:00 105 3 gusting 8
2019-Nov-18 12:54 097 4 gusting 8
2019-Nov-18 12:48 088 5 gusting 7
2019-Nov-18 12:42 098 5 gusting 8
2019-Nov-18 12:36 098 5 gusting 9
2019-Nov-18 12:30 099 5 gusting 9
2019-Nov-18 12:24 090 4 gusting 6
2019-Nov-18 12:18 088 3 gusting 6
2019-Nov-18 12:12 097 3 gusting 6
2019-Nov-18 12:06 100 3 gusting 6
2019-Nov-18 12:00 099 3 gusting 6
2019-Nov-18 11:54 099 3 gusting 5
2019-Nov-18 11:48 094 2 gusting 5
2019-Nov-18 11:42 092 2 gusting 6
2019-Nov-18 11:36 094 3 gusting 6
2019-Nov-18 11:30 090 3 gusting 6
2019-Nov-18 11:24 082 3 gusting 6
2019-Nov-18 11:18 090 1 gusting 6
2019-Nov-18 11:12 093 3 gusting 5
2019-Nov-18 11:06 103 2 gusting 4
2019-Nov-18 11:00 104 2 gusting 5
2019-Nov-18 10:54 111 3 gusting 4
2019-Nov-18 10:48 097 3 gusting 5
2019-Nov-18 10:42 085 3 gusting 6
2019-Nov-18 10:36 077 3 gusting 5
2019-Nov-18 10:30 079 3 gusting 6
2019-Nov-18 10:24 072 3 gusting 6
2019-Nov-18 10:18 085 2 gusting 6
2019-Nov-18 10:12 093 3 gusting 6
2019-Nov-18 10:06 113 3 gusting 6
2019-Nov-18 10:00 111 4 gusting 6
2019-Nov-18 09:54 099 3 gusting 4
2019-Nov-18 09:48 086 2 gusting 5
2019-Nov-18 09:42 064 3 gusting 5
2019-Nov-18 09:36 091 2 gusting 5
2019-Nov-18 09:30 086 1 gusting 4
2019-Nov-18 09:24 080 2 gusting 5
2019-Nov-18 09:18 062 3 gusting 6
2019-Nov-18 09:12 044 4 gusting 5
2019-Nov-18 09:06 032 4 gusting 6
2019-Nov-18 09:00 054 4 gusting 6
2019-Nov-18 08:54 052 4 gusting 6
2019-Nov-18 08:48 045 4 gusting 6
2019-Nov-18 08:42 059 4 gusting 6
2019-Nov-18 08:36 039 3 gusting 7
2019-Nov-18 08:30 039 5 gusting 7
2019-Nov-18 08:24 041 5 gusting 8
2019-Nov-18 08:18 050 6 gusting 7
2019-Nov-18 08:12 040 5 gusting 7
2019-Nov-18 08:06 047 4 gusting 8
2019-Nov-18 08:00 046 4 gusting 6
2019-Nov-18 07:54 060 6 gusting 9
2019-Nov-18 07:48 048 4 gusting 11
2019-Nov-18 07:42 047 6 gusting 8
2019-Nov-18 07:36 043 6 gusting 9
2019-Nov-18 07:30 053 6 gusting 8
2019-Nov-18 07:24 048 6 gusting 9
2019-Nov-18 07:18 051 6 gusting 8
2019-Nov-18 07:12 045 5 gusting 10
2019-Nov-18 07:06 056 5 gusting 6
2019-Nov-18 07:00 047 4 gusting 7
2019-Nov-18 06:54 040 5 gusting 7
2019-Nov-18 06:48 038 4 gusting 7
2019-Nov-18 06:42 050 3 gusting 7
2019-Nov-18 06:36 065 5 gusting 8
2019-Nov-18 06:30 059 4 gusting 8
2019-Nov-18 06:24 048 6 gusting 9
2019-Nov-18 06:18 054 5 gusting 7
2019-Nov-18 06:12 050 6 gusting 9
2019-Nov-18 06:06 051 5 gusting 8
2019-Nov-18 06:00 059 5 gusting 8
2019-Nov-18 05:54 050 6 gusting 8
2019-Nov-18 05:48 049 6 gusting 8
2019-Nov-18 05:42 056 5 gusting 7
2019-Nov-18 05:36 053 6 gusting 9
2019-Nov-18 05:30 064 4 gusting 7
2019-Nov-18 05:24 076 4 gusting 6
2019-Nov-18 05:18 059 2 gusting 6
2019-Nov-18 05:12 050 5 gusting 6
2019-Nov-18 05:06 034 5 gusting 7
2019-Nov-18 05:00 077 3 gusting 5
2019-Nov-18 04:54 065 6 gusting 7
2019-Nov-18 04:48 066 3 gusting 7
2019-Nov-18 04:42 051 3 gusting 7
2019-Nov-18 04:36 070 5 gusting 7
2019-Nov-18 04:30 044 4 gusting 8
2019-Nov-18 04:24 036 5 gusting 6
2019-Nov-18 04:18 056 4 gusting 9
2019-Nov-18 04:12 044 6 gusting 9
2019-Nov-18 04:06 038 6 gusting 10
2019-Nov-18 04:00 031 6 gusting 9
2019-Nov-18 03:54 024 4 gusting 10
2019-Nov-18 03:48 037 7 gusting 10
2019-Nov-18 03:42 047 6 gusting 10
2019-Nov-18 03:36 048 6 gusting 11
2019-Nov-18 03:30 062 5 gusting 13
2019-Nov-18 03:24 052 6 gusting 9
2019-Nov-18 03:18 052 5 gusting 9
2019-Nov-18 03:12 062 5 gusting 11
2019-Nov-18 03:06 047 6 gusting 11
2019-Nov-18 03:00 046 8 gusting 13
2019-Nov-18 02:54 034 6 gusting 11
2019-Nov-18 02:48 031 6 gusting 11
2019-Nov-18 02:42 042 7 gusting 12
2019-Nov-18 02:36 058 7 gusting 10
2019-Nov-18 02:30 040 5 gusting 12
2019-Nov-18 02:24 046 8 gusting 13
2019-Nov-18 02:18 034 7 gusting 14
2019-Nov-18 02:12 024 7 gusting 19
2019-Nov-18 02:06 354 14 gusting 17
2019-Nov-18 02:00 351 12 gusting 14
2019-Nov-18 01:54 002 12 gusting 14
2019-Nov-18 01:48 357 12 gusting 15
2019-Nov-18 01:36 002 11 gusting 14
2019-Nov-18 01:30
2019-Nov-18 01:24 009 9 gusting 13
2019-Nov-18 01:18 010 9 gusting 15
2019-Nov-18 01:12 007 11 gusting 15
2019-Nov-18 01:06 004 13 gusting 15
2019-Nov-18 01:00 358 13 gusting 16
2019-Nov-18 00:54 003 11 gusting 16
2019-Nov-18 00:48 008 12 gusting 16
2019-Nov-18 00:42 004 12 gusting 15
2019-Nov-18 00:36 003 13 gusting 16
2019-Nov-18 00:30 001 13 gusting 15
2019-Nov-18 00:24 354 13 gusting 18
2019-Nov-18 00:18 352 13 gusting 17
2019-Nov-18 00:12 002 13 gusting 17
2019-Nov-18 00:06 356 14 gusting 17
2019-Nov-18 00:00 346 13 gusting 15
2019-Nov-17 23:54 001 13 gusting 15
2019-Nov-17 23:42 359 13 gusting 15
2019-Nov-17 23:36 359 13 gusting 14
2019-Nov-17 23:30 343 12 gusting 14
2019-Nov-17 23:24 353 14 gusting 19
2019-Nov-17 23:18 355 15 gusting 19
2019-Nov-17 23:12 350 15 gusting 18
2019-Nov-17 23:06 356 15 gusting 18
2019-Nov-17 23:00 356 13 gusting 18
2019-Nov-17 22:54 356 14 gusting 18
2019-Nov-17 22:48 355 14 gusting 18
2019-Nov-17 22:42
2019-Nov-17 22:36 355 15 gusting 18
2019-Nov-17 22:30 349 14 gusting 18
2019-Nov-17 22:24 344 15 gusting 19
2019-Nov-17 22:18 349 12 gusting 16
2019-Nov-17 22:12 358 13 gusting 16
2019-Nov-17 22:06 350 13 gusting 20
2019-Nov-17 22:00 356 15 gusting 19
2019-Nov-17 21:54 007 15 gusting 19
2019-Nov-17 21:48 005 16 gusting 20
2019-Nov-17 21:42 007 16 gusting 19
2019-Nov-17 21:36 006 16 gusting 19
2019-Nov-17 21:30 007 14 gusting 20
2019-Nov-17 21:24 009 16 gusting 19
2019-Nov-17 21:18 008 16 gusting 19
2019-Nov-17 21:12 015 13 gusting 19
2019-Nov-17 21:06 010 13 gusting 19
2019-Nov-17 21:00 013 13 gusting 19
2019-Nov-17 20:54 006 15 gusting 19
2019-Nov-17 20:48 006 15 gusting 19
2019-Nov-17 20:42 003 15 gusting 19
2019-Nov-17 20:36 004 16 gusting 19
2019-Nov-17 20:30 003 15 gusting 19
2019-Nov-17 20:24 005 16 gusting 19
2019-Nov-17 20:18 006 14 gusting 18
2019-Nov-17 20:12 006 15 gusting 19
2019-Nov-17 20:06 007 16 gusting 19
2019-Nov-17 20:00
2019-Nov-17 19:54 005 16 gusting 20
2019-Nov-17 19:48 003 17 gusting 22
2019-Nov-17 19:42 003 19 gusting 22
2019-Nov-17 19:36 003 18 gusting 22
2019-Nov-17 19:30 005 19 gusting 22
2019-Nov-17 19:24 003 19 gusting 22
2019-Nov-17 19:18 008 19 gusting 23
2019-Nov-17 19:12 005 19 gusting 22
2019-Nov-17 19:06 005 19 gusting 23
2019-Nov-17 19:00 005 19 gusting 24
2019-Nov-17 18:54 009 20 gusting 24
2019-Nov-17 18:48 007 18 gusting 24
2019-Nov-17 18:42 004 19 gusting 22
2019-Nov-17 18:36 005 19 gusting 22
2019-Nov-17 18:30 004 18 gusting 22
2019-Nov-17 18:24 006 17 gusting 20
2019-Nov-17 18:18 007 17 gusting 20
2019-Nov-17 18:12 011 13 gusting 19
2019-Nov-17 18:06 010 16 gusting 22
2019-Nov-17 18:00 012 14 gusting 20
2019-Nov-17 17:54 005 13 gusting 21
2019-Nov-17 17:48 004 17 gusting 20
2019-Nov-17 17:42 007 16 gusting 20
2019-Nov-17 17:36 006 14 gusting 19
2019-Nov-17 17:30 013 12 gusting 19
2019-Nov-17 17:24 005 13 gusting 19
2019-Nov-17 17:18 006 16 gusting 20
2019-Nov-17 17:12 005 17 gusting 19
2019-Nov-17 17:06 007 15 gusting 20
2019-Nov-17 17:00 007 17 gusting 19
2019-Nov-17 16:54 005 15 gusting 19
2019-Nov-17 16:48 008 13 gusting 18
2019-Nov-17 16:42 011 13 gusting 19
2019-Nov-17 16:36 009 12 gusting 16
2019-Nov-17 16:30 013 11 gusting 16
2019-Nov-17 16:24 005 13 gusting 17
2019-Nov-17 16:18 022 11 gusting 19
2019-Nov-17 16:12 007 15 gusting 19
2019-Nov-17 16:06 002 14 gusting 19
2019-Nov-17 16:00 001 16 gusting 19
2019-Nov-17 15:54 002 16 gusting 20
2019-Nov-17 15:48 004 15 gusting 22
2019-Nov-17 15:42 003 19 gusting 23
2019-Nov-17 15:36 005 17 gusting 20
2019-Nov-17 15:30 009 16 gusting 23
2019-Nov-17 15:24 009 16 gusting 19
2019-Nov-17 15:18 002 12 gusting 19
2019-Nov-17 15:12 010 16 gusting 20
2019-Nov-17 15:06 011 15 gusting 19
2019-Nov-17 15:00 006 13 gusting 18